Time;durP1;ratioP1;P1;durP2;ratioP2;P2;SDS_P1;SDS_P2;PMS_P1;PMS_P2;Temp;Humidity;BMP_temperature;BMP_pressure;BME280_temperature;BME280_humidity;BME280_pressure;Samples;Min_cycle;Max_cycle;Signal;HPM_P1;HPM_P2
2022/12/11 00:01:19;;;;;;;0.88;0.88;;;;;;;6.10;70.37;97847.09;4388892;32;32814;-88
2022/12/11 00:03:48;;;;;;;2.20;2.00;;;;;;;5.73;71.89;97840.41;4376591;32;32521;-88
2022/12/11 00:06:20;;;;;;;0.52;0.52;;;;;;;5.78;71.98;97835.75;4382218;32;33606;-88
2022/12/11 00:08:52;;;;;;;1.40;0.73;;;;;;;5.93;70.98;97835.87;4368983;32;33830;-88
2022/12/11 00:11:22;;;;;;;0.15;0.15;;;;;;;5.53;72.45;97836.28;4387888;32;32618;-88
2022/12/11 00:13:50;;;;;;;2.05;1.45;;;;;;;5.34;73.33;97828.56;4402047;32;33162;-87
2022/12/11 00:16:19;;;;;;;0.88;0.88;;;;;;;5.65;72.20;97826.91;4393730;32;105700;-88
2022/12/11 00:18:55;;;;;;;3.12;2.58;;;;;;;5.80;71.14;97830.47;4406626;32;34459;-87
2022/12/11 00:21:22;;;;;;;0.25;0.25;;;;;;;5.53;72.27;97827.56;4413583;32;33142;-88
2022/12/11 00:23:51;;;;;;;0.85;0.85;;;;;;;5.47;72.25;97836.63;4401348;32;32354;-87
2022/12/11 00:26:21;;;;;;;1.33;1.23;;;;;;;5.64;71.68;97841.75;4401437;32;33795;-88
2022/12/11 00:28:55;;;;;;;1.62;0.62;;;;;;;5.67;71.46;97824.22;4399302;32;33385;-87
2022/12/11 00:31:23;;;;;;;0.70;0.70;;;;;;;5.33;72.81;97829.50;4400080;32;34601;-88
2022/12/11 00:33:51;;;;;;;0.88;0.85;;;;;;;5.55;71.92;97838.78;4407559;32;32220;-88
2022/12/11 00:36:23;;;;;;;0.57;0.57;;;;;;;5.68;70.80;97831.13;4397797;32;33257;-88
2022/12/11 00:38:52;;;;;;;1.12;1.08;;;;;;;5.56;71.22;97835.28;4396763;32;33257;-88
2022/12/11 00:41:20;;;;;;;1.85;1.75;;;;;;;5.65;70.84;97826.91;4397666;32;32032;-88
2022/12/11 00:43:49;;;;;;;0.03;0.03;;;;;;;5.60;70.91;97835.03;4409213;32;32683;-88
2022/12/11 00:46:20;;;;;;;2.20;1.50;;;;;;;5.52;71.07;97839.81;4410417;32;33840;-88
2022/12/11 00:48:49;;;;;;;0.37;0.37;;;;;;;5.68;70.29;97845.06;4395686;32;32931;-88
2022/12/11 00:51:18;;;;;;;1.45;0.90;;;;;;;5.43;71.13;97842.09;4400201;32;34003;-87
2022/12/11 00:53:46;;;;;;;7.45;0.80;;;;;;;5.33;71.33;97847.00;4397967;32;32372;-88
2022/12/11 00:56:18;;;;;;;0.37;0.37;;;;;;;5.19;71.27;97858.19;4410391;32;33864;-87
2022/12/11 00:58:50;;;;;;;2.60;2.40;;;;;;;5.23;71.60;97841.41;4380510;32;32939;-88
2022/12/11 01:01:20;;;;;;;1.02;0.88;;;;;;;5.26;71.28;97853.47;4397584;32;33084;-86
2022/12/11 01:03:50;;;;;;;2.33;2.12;;;;;;;4.71;73.03;97851.97;4408733;32;33073;-86
2022/12/11 01:06:22;;;;;;;0.40;0.40;;;;;;;5.03;71.46;97844.19;4398093;32;33921;-88
2022/12/11 01:11:37;;;;;;;0.08;0.08;;;;;;;5.02;71.64;97840.75;4401641;32;33659;-87
2022/12/11 01:14:05;;;;;;;1.20;1.20;;;;;;;4.84;71.88;97853.03;4404682;32;33496;-87
2022/12/11 01:16:33;;;;;;;1.65;1.52;;;;;;;4.97;71.32;97860.22;4399096;32;32927;-90
2022/12/11 01:19:02;;;;;;;0.40;0.40;;;;;;;5.23;70.45;97864.09;4402565;32;32743;-91
2022/12/11 01:21:30;;;;;;;0.73;0.73;;;;;;;5.12;70.72;97862.03;4411549;32;32373;-89
2022/12/11 01:23:58;;;;;;;1.33;0.90;;;;;;;5.16;70.66;97855.72;4396590;32;31784;-88
2022/12/11 01:26:27;;;;;;;0.50;0.50;;;;;;;4.85;71.26;97866.94;4407885;32;33637;-87
2022/12/11 01:28:56;;;;;;;3.70;2.83;;;;;;;4.87;71.46;97872.94;4408869;32;34702;-87
2022/12/11 01:31:31;;;;;;;0.17;0.17;;;;;;;4.85;71.61;97874.78;4405058;32;33021;-88
2022/12/11 01:33:59;;;;;;;0.37;0.37;;;;;;;4.92;71.19;97870.94;4387084;32;32419;-87
2022/12/11 01:36:26;;;;;;;1.37;1.27;;;;;;;5.14;70.20;97873.28;4413114;32;33713;-86
2022/12/11 01:38:56;;;;;;;1.15;1.10;;;;;;;4.94;70.92;97876.06;4408003;32;33746;-86
2022/12/11 01:41:26;;;;;;;0.82;0.82;;;;;;;4.71;72.13;97875.50;4410743;32;34579;-87
2022/12/11 01:44:00;;;;;;;2.05;1.08;;;;;;;5.05;70.43;97873.75;4396507;32;32273;-87
2022/12/11 01:46:31;;;;;;;1.15;1.15;;;;;;;4.88;70.84;97870.22;4401586;32;33859;-87
2022/12/11 01:49:01;;;;;;;5.15;1.50;;;;;;;4.51;72.68;97875.63;4398491;32;34034;-87
2022/12/11 01:51:32;;;;;;;0.55;0.55;;;;;;;4.38;72.74;97872.81;4409857;32;35442;-87
2022/12/11 01:54:07;;;;;;;1.75;1.65;;;;;;;4.60;72.12;97883.88;4410629;32;33564;-87
2022/12/11 01:56:40;;;;;;;0.60;0.60;;;;;;;4.94;70.56;97881.28;4395637;32;33100;-86
2022/12/11 01:59:08;;;;;;;0.45;0.45;;;;;;;4.71;71.38;97887.72;4383470;32;33757;-86
2022/12/11 02:01:45;;;;;;;2.17;2.08;;;;;;;4.61;71.16;97874.28;4382512;32;32902;-86
2022/12/11 02:04:15;;;;;;;1.10;1.10;;;;;;;4.51;71.67;97886.09;4397887;32;33573;-87
2022/12/11 02:06:46;;;;;;;4.87;1.83;;;;;;;4.59;71.46;97878.72;4392879;32;32308;-88
2022/12/11 02:09:19;;;;;;;0.13;0.13;;;;;;;5.01;69.55;97878.28;4398940;32;33927;-86
2022/12/11 02:12:06;;;;;;;0.80;0.80;;;;;;;4.95;69.57;97869.94;4412169;32;33861;-88
2022/12/11 02:14:47;;;;;;;1.00;0.55;;;;;;;4.90;69.98;97874.56;4412040;32;33402;-87
2022/12/11 02:17:25;;;;;;;0.00;0.00;;;;;;;4.59;71.16;97881.31;4413475;32;33612;-87
2022/12/11 02:20:05;;;;;;;0.10;0.10;;;;;;;4.19;72.47;97888.53;4380311;32;34091;-87
2022/12/11 02:22:48;;;;;;;1.85;1.20;;;;;;;4.68;70.77;97877.41;4412643;32;33000;-87
2022/12/11 02:25:20;;;;;;;3.08;1.05;;;;;;;4.71;70.38;97885.94;4408652;32;33085;-87
2022/12/11 02:28:18;;;;;;;0.35;0.35;;;;;;;4.80;69.57;97877.66;4402461;32;33759;-88
2022/12/11 02:30:53;;;;;;;3.65;1.00;;;;;;;4.39;71.40;97878.88;4353243;32;33225;-88
2022/12/11 02:33:27;;;;;;;0.30;0.30;;;;;;;4.37;70.84;97874.56;4384837;32;33337;-87
2022/12/11 02:35:55;;;;;;;0.60;0.55;;;;;;;4.66;69.87;97869.66;4406350;32;32743;-88
2022/12/11 02:38:30;;;;;;;0.45;0.45;;;;;;;4.40;71.03;97868.34;4386901;32;32339;-86
2022/12/11 02:41:00;;;;;;;0.15;0.15;;;;;;;4.73;69.52;97860.56;4393541;32;33341;-85
2022/12/11 02:43:30;;;;;;;1.87;1.35;;;;;;;4.22;71.04;97862.25;4408373;32;33388;-85
2022/12/11 02:45:59;;;;;;;0.13;0.13;;;;;;;4.52;70.03;97861.66;4410727;32;33466;-86
2022/12/11 02:48:28;;;;;;;6.45;0.55;;;;;;;4.53;69.79;97858.13;4411868;32;34891;-86
2022/12/11 02:50:57;;;;;;;0.10;0.10;;;;;;;4.06;71.96;97861.31;4399238;32;34389;-86
2022/12/11 02:53:28;;;;;;;0.75;0.75;;;;;;;4.00;72.34;97856.38;4399848;32;33898;-87
2022/12/11 02:56:01;;;;;;;0.20;0.20;;;;;;;3.96;71.76;97857.44;4408930;32;32624;-87
2022/12/11 02:58:31;;;;;;;1.02;1.02;;;;;;;4.39;70.96;97855.34;4411453;32;33195;-86
2022/12/11 03:01:00;;;;;;;2.25;1.75;;;;;;;4.44;70.38;97845.50;4385131;32;33256;-86
2022/12/11 03:03:28;;;;;;;1.65;1.55;;;;;;;4.32;70.79;97854.78;4413943;32;32302;-86
2022/12/11 03:05:56;;;;;;;0.00;0.00;;;;;;;4.24;70.77;97856.97;4399942;32;33692;-86
2022/12/11 03:08:25;;;;;;;0.30;0.30;;;;;;;4.53;70.33;97842.44;4409147;32;33826;-86
2022/12/11 03:10:52;;;;;;;0.28;0.22;;;;;;;4.35;71.16;97839.81;4406152;32;33826;-86
2022/12/11 03:13:22;;;;;;;0.82;0.82;;;;;;;4.36;70.72;97843.28;4410266;32;34458;-86
2022/12/11 03:16:04;;;;;;;0.75;0.75;;;;;;;4.59;69.80;97842.13;4397515;32;35345;-87
2022/12/11 03:18:40;;;;;;;5.30;0.88;;;;;;;4.21;71.78;97846.66;4387716;32;32684;-86
2022/12/11 03:21:31;;;;;;;0.00;0.00;;;;;;;4.53;70.16;97850.28;4399826;32;33636;-86
2022/12/11 03:24:11;;;;;;;0.13;0.13;;;;;;;4.32;70.84;97850.44;4402010;32;32371;-87
2022/12/11 03:26:43;;;;;;;1.65;1.55;;;;;;;4.41;70.19;97849.13;4410465;32;31932;-87
2022/12/11 03:29:23;;;;;;;1.10;1.08;;;;;;;4.30;70.92;97847.03;4410493;32;33766;-87
2022/12/11 03:32:07;;;;;;;1.55;1.08;;;;;;;4.28;70.29;97835.84;4405635;32;32268;-87
2022/12/11 03:34:44;;;;;;;0.35;0.35;;;;;;;4.21;71.09;97836.19;4413463;32;32961;-87
2022/12/11 03:37:15;;;;;;;0.28;0.28;;;;;;;4.07;71.71;97829.88;4399667;32;32884;-87
2022/12/11 03:39:50;;;;;;;0.03;0.03;;;;;;;3.93;71.57;97828.87;4399369;32;33237;-87
2022/12/11 03:42:19;;;;;;;1.23;1.12;;;;;;;3.77;73.09;97827.00;4412792;32;34104;-87
2022/12/11 03:44:49;;;;;;;4.03;1.90;;;;;;;3.82;72.54;97834.59;4391549;32;32927;-87
2022/12/11 03:47:20;;;;;;;0.08;0.08;;;;;;;4.27;71.21;97839.38;4400795;32;34072;-87
2022/12/11 03:49:49;;;;;;;0.50;0.50;;;;;;;4.37;70.60;97843.22;4398941;32;34288;-87
2022/12/11 03:52:17;;;;;;;6.00;0.73;;;;;;;4.06;71.89;97849.09;4399625;32;34740;-87
2022/12/11 03:54:49;;;;;;;0.17;0.17;;;;;;;3.89;73.25;97861.25;4391184;32;32944;-87
2022/12/11 03:57:26;;;;;;;0.10;0.10;;;;;;;4.03;72.22;97858.84;4392775;32;32510;-87
2022/12/11 03:59:55;;;;;;;3.00;2.78;;;;;;;4.20;71.30;97861.47;4396472;32;32605;-87
2022/12/11 04:02:24;;;;;;;0.62;0.62;;;;;;;4.31;70.90;97869.63;4398048;32;34329;-88
2022/12/11 04:04:54;;;;;;;0.75;0.75;;;;;;;4.27;70.84;97875.06;4413573;32;32759;-86
2022/12/11 04:07:22;;;;;;;0.77;0.77;;;;;;;3.93;72.40;97868.88;4410909;32;32386;-87
2022/12/11 04:09:49;;;;;;;1.55;1.45;;;;;;;3.41;74.10;97875.69;4392812;32;32950;-86
2022/12/11 04:12:17;;;;;;;0.17;0.17;;;;;;;3.71;73.12;97876.03;4407984;32;33776;-87
2022/12/11 04:15:01;;;;;;;0.95;0.88;;;;;;;3.90;72.74;97865.59;4413191;32;33171;-87
2022/12/11 04:26:10;;;;;;;0.25;0.25;;;;;;;3.55;73.66;97879.34;4410259;32;32993;-88
2022/12/11 04:28:38;;;;;;;1.00;1.00;;;;;;;3.73;73.16;97882.03;4413059;32;33221;-87
2022/12/11 04:31:11;;;;;;;0.05;0.05;;;;;;;3.48;73.28;97877.09;4399397;32;33570;-87
2022/12/11 04:33:40;;;;;;;0.30;0.30;;;;;;;3.75;72.73;97888.88;4399052;32;34168;-86
2022/12/11 04:36:09;;;;;;;0.28;0.28;;;;;;;3.77;72.99;97897.47;4387951;32;33835;-86
2022/12/11 04:38:37;;;;;;;1.08;1.08;;;;;;;3.58;73.98;97896.63;4410466;32;33414;-87
2022/12/11 04:41:09;;;;;;;0.45;0.45;;;;;;;3.71;72.86;97889.94;4409153;32;34527;-86
2022/12/11 04:43:37;;;;;;;0.55;0.55;;;;;;;3.56;74.14;97898.44;4408978;32;34484;-87
2022/12/11 04:46:07;;;;;;;0.17;0.17;;;;;;;3.59;73.88;97896.56;4408463;32;34534;-87
2022/12/11 04:48:35;;;;;;;1.27;1.27;;;;;;;3.32;75.04;97901.28;4397957;32;34300;-88
2022/12/11 04:51:03;;;;;;;0.57;0.57;;;;;;;3.76;73.16;97914.06;4385873;32;33238;-87
2022/12/11 04:53:31;;;;;;;0.00;0.00;;;;;;;3.52;74.10;97918.66;4396955;32;32901;-87
2022/12/11 04:55:58;;;;;;;0.03;0.03;;;;;;;3.57;73.70;97914.06;4406900;32;34553;-87
2022/12/11 04:58:27;;;;;;;2.05;1.95;;;;;;;3.87;73.03;97916.16;4412214;32;32587;-88
2022/12/11 05:00:55;;;;;;;0.77;0.28;;;;;;;3.58;73.99;97925.34;4409261;32;33722;-88
2022/12/11 05:03:23;;;;;;;1.48;1.02;;;;;;;3.39;74.55;97927.94;4411257;32;33617;-88
2022/12/11 05:05:52;;;;;;;1.80;1.65;;;;;;;3.40;74.02;97931.38;4411648;32;32782;-88
2022/12/11 05:08:21;;;;;;;0.85;0.85;;;;;;;3.70;73.02;97932.59;4409743;32;33297;-89
2022/12/11 05:10:56;;;;;;;0.13;0.13;;;;;;;3.62;73.88;97926.06;4394510;32;32301;-88
2022/12/11 05:13:25;;;;;;;1.33;1.23;;;;;;;3.52;74.36;97931.69;4385526;32;32958;-88
2022/12/11 05:15:54;;;;;;;0.85;0.85;;;;;;;3.57;73.94;97937.56;4410559;32;33304;-89
2022/12/11 05:18:23;;;;;;;1.00;0.90;;;;;;;3.15;75.83;97939.44;4395036;32;32403;-88
2022/12/11 05:20:56;;;;;;;0.93;0.90;;;;;;;2.98;76.29;97940.16;4398224;32;34601;-88
2022/12/11 05:23:25;;;;;;;0.60;0.60;;;;;;;3.31;74.82;97938.69;4388222;32;33234;-88
2022/12/11 05:25:58;;;;;;;0.30;0.30;;;;;;;3.67;73.63;97947.56;4398436;32;33967;-89
2022/12/11 05:28:28;;;;;;;0.73;0.73;;;;;;;3.25;74.88;97944.19;4394557;32;32096;-88
2022/12/11 05:31:16;;;;;;;0.00;0.00;;;;;;;3.15;75.43;97932.47;4387517;32;32403;-88
2022/12/11 05:33:45;;;;;;;0.85;0.85;;;;;;;2.62;77.49;97930.41;4381026;32;34181;-88
2022/12/11 05:36:19;;;;;;;0.00;0.00;;;;;;;3.28;74.76;97925.81;4386425;32;33797;-88
2022/12/11 05:38:49;;;;;;;0.45;0.45;;;;;;;3.16;75.47;97934.16;4399549;32;33736;-87
2022/12/11 05:41:21;;;;;;;0.55;0.55;;;;;;;3.24;75.01;97942.50;4407682;32;33209;-87
2022/12/11 05:43:49;;;;;;;0.35;0.35;;;;;;;3.33;74.63;97946.47;4412803;32;33788;-88
2022/12/11 05:46:19;;;;;;;0.80;0.57;;;;;;;3.47;74.49;97944.09;4399757;32;33249;-86
2022/12/11 05:48:52;;;;;;;0.37;0.37;;;;;;;3.52;73.82;97930.84;4400555;32;32381;-87
2022/12/11 05:51:20;;;;;;;0.62;0.62;;;;;;;3.50;74.05;97943.94;4413112;32;34542;-87
2022/12/11 05:53:50;;;;;;;0.00;0.00;;;;;;;3.72;72.80;97941.22;4400631;32;34530;-86
2022/12/11 05:56:20;;;;;;;2.05;1.35;;;;;;;3.26;75.13;97937.22;4411699;32;34468;-85
2022/12/11 05:58:49;;;;;;;1.30;1.27;;;;;;;3.22;75.19;97949.53;4413186;32;32989;-87
2022/12/11 06:01:22;;;;;;;0.10;0.10;;;;;;;3.41;74.51;97959.16;4405443;32;34573;-86
2022/12/11 06:03:52;;;;;;;0.43;0.43;;;;;;;3.43;74.37;97957.34;4402689;32;33251;-85
2022/12/11 06:06:23;;;;;;;0.13;0.13;;;;;;;3.48;73.86;97971.03;4400558;32;34576;-85
2022/12/11 06:08:53;;;;;;;0.82;0.82;;;;;;;3.30;74.73;97978.75;4414176;32;32886;-84
2022/12/11 06:11:23;;;;;;;0.28;0.28;;;;;;;3.68;72.93;97984.03;4387801;32;33792;-84
2022/12/11 06:14:00;;;;;;;0.03;0.03;;;;;;;3.52;73.93;97983.88;4411280;32;34669;-85
2022/12/11 06:16:29;;;;;;;0.22;0.22;;;;;;;3.56;73.04;97981.97;4399414;32;34462;-84
2022/12/11 06:19:01;;;;;;;0.03;0.03;;;;;;;3.06;75.08;98003.28;4400687;32;33936;-85
2022/12/11 06:21:31;;;;;;;0.05;0.05;;;;;;;3.03;75.36;97992.97;4411254;32;33820;-85
2022/12/11 06:24:02;;;;;;;0.47;0.47;;;;;;;3.09;75.66;98010.97;4393490;32;32957;-84
2022/12/11 06:26:30;;;;;;;0.10;0.10;;;;;;;3.27;74.62;98014.53;4410248;32;34432;-85
2022/12/11 06:29:00;;;;;;;0.65;0.65;;;;;;;3.25;74.82;98012.00;4400414;32;32658;-85
2022/12/11 06:31:28;;;;;;;2.47;2.28;;;;;;;3.34;74.54;98014.22;4413803;32;32747;-86
2022/12/11 06:34:03;;;;;;;0.00;0.00;;;;;;;3.23;74.27;98019.06;4400267;32;33731;-86
2022/12/11 06:36:33;;;;;;;0.60;0.60;;;;;;;3.45;73.21;98025.94;4409685;32;34159;-86
2022/12/11 06:39:02;;;;;;;0.10;0.10;;;;;;;3.28;74.28;98037.97;4410139;32;33787;-86
2022/12/11 06:41:33;;;;;;;0.20;0.20;;;;;;;3.18;74.78;98041.87;4410374;32;32647;-86
2022/12/11 06:44:01;;;;;;;0.93;0.77;;;;;;;3.59;72.95;98036.63;4408330;32;33585;-86
2022/12/11 06:46:32;;;;;;;1.12;1.02;;;;;;;3.44;73.53;98037.31;4400313;32;33350;-86
2022/12/11 06:49:01;;;;;;;0.00;0.00;;;;;;;3.33;73.74;98036.00;4398675;32;32729;-86
2022/12/11 06:51:32;;;;;;;0.00;0.00;;;;;;;3.07;74.85;98044.06;4412083;32;33755;-86
2022/12/11 06:54:05;;;;;;;0.00;0.00;;;;;;;3.40;72.96;98026.16;4393349;32;34359;-86
2022/12/11 06:56:38;;;;;;;1.70;1.25;;;;;;;3.57;72.53;98048.91;4412387;32;33725;-86
2022/12/11 06:59:11;;;;;;;0.10;0.10;;;;;;;3.36;73.14;98048.06;4410677;32;34103;-85
2022/12/11 07:01:41;;;;;;;1.87;1.77;;;;;;;3.25;73.65;98048.53;4398540;32;32812;-87
2022/12/11 07:04:11;;;;;;;0.08;0.08;;;;;;;3.51;73.02;98046.56;4413718;32;34467;-87
2022/12/11 07:09:24;;;;;;;0.00;0.00;;;;;;;3.59;72.28;98047.91;4408554;32;32121;-85
2022/12/11 07:11:56;;;;;;;0.60;0.60;;;;;;;3.45;72.73;98042.44;4413519;32;32657;-85
2022/12/11 07:14:26;;;;;;;1.65;1.55;;;;;;;3.39;73.27;98047.09;4388132;32;34035;-89
2022/12/11 07:16:56;;;;;;;0.82;0.82;;;;;;;3.16;73.74;98046.28;4375944;32;33276;-87
2022/12/11 07:19:31;;;;;;;0.75;0.75;;;;;;;3.67;72.28;98049.37;4389897;32;32482;-86
2022/12/11 07:22:15;;;;;;;0.45;0.45;;;;;;;3.73;71.39;98042.09;4381388;32;33123;-87
2022/12/11 07:24:48;;;;;;;0.13;0.13;;;;;;;3.33;72.83;98041.22;4388074;32;32905;-88
2022/12/11 07:27:17;;;;;;;0.10;0.10;;;;;;;3.64;71.38;98049.50;4385050;32;32601;-88
2022/12/11 07:29:53;;;;;;;0.00;0.00;;;;;;;3.57;71.74;98060.19;4386482;32;32098;-87
2022/12/11 07:32:24;;;;;;;0.47;0.47;;;;;;;3.13;73.60;98064.66;4388496;32;34445;-87
2022/12/11 07:34:55;;;;;;;0.60;0.43;;;;;;;3.32;72.71;98060.41;4388502;32;33285;-87
2022/12/11 07:37:26;;;;;;;0.10;0.10;;;;;;;3.35;73.37;98069.84;4387968;32;33023;-88
2022/12/11 07:39:56;;;;;;;0.77;0.77;;;;;;;3.31;72.95;98069.12;4374561;32;31602;-87
2022/12/11 07:42:27;;;;;;;0.10;0.10;;;;;;;3.48;72.56;98067.59;4374720;32;32890;-87
2022/12/11 07:45:01;;;;;;;0.00;0.00;;;;;;;3.67;71.24;98075.47;4375210;32;34471;-87
2022/12/11 07:47:33;;;;;;;0.95;0.95;;;;;;;3.31;71.81;98083.94;4374915;32;33589;-87
2022/12/11 07:50:03;;;;;;;0.00;0.00;;;;;;;3.40;72.85;98098.34;4387530;32;34050;-89
2022/12/11 07:52:33;;;;;;;0.52;0.52;;;;;;;3.96;70.23;98108.13;4387811;32;33557;-88
2022/12/11 07:55:04;;;;;;;0.15;0.15;;;;;;;3.66;70.83;98112.94;4376078;32;32241;-88
2022/12/11 07:57:38;;;;;;;0.32;0.25;;;;;;;3.58;70.97;98111.47;4384010;32;34358;-88
2022/12/11 08:00:19;;;;;;;0.05;0.05;;;;;;;3.96;70.60;98113.34;4374379;32;33714;-88
2022/12/11 08:02:49;;;;;;;0.17;0.17;;;;;;;3.53;71.79;98116.03;4379722;32;34060;-88
2022/12/11 08:05:19;;;;;;;0.28;0.28;;;;;;;3.60;70.33;98122.69;4386030;32;33756;-88
2022/12/11 08:07:50;;;;;;;0.00;0.00;;;;;;;3.82;69.90;98127.84;4385904;32;33871;-88
2022/12/11 08:10:21;;;;;;;0.00;0.00;;;;;;;3.88;70.68;98139.78;4372090;32;33342;-88
2022/12/11 08:12:52;;;;;;;0.00;0.00;;;;;;;3.52;71.48;98150.03;4360150;32;32840;-88
2022/12/11 08:15:21;;;;;;;1.77;1.65;;;;;;;3.88;69.78;98167.66;4392781;32;33120;-88
2022/12/11 08:17:50;;;;;;;0.00;0.00;;;;;;;3.64;70.42;98167.78;4398835;32;32271;-88
2022/12/11 08:20:19;;;;;;;0.00;0.00;;;;;;;3.63;70.66;98166.09;4383640;32;32562;-88
2022/12/11 08:22:50;;;;;;;0.15;0.15;;;;;;;3.62;71.32;98166.16;4385243;32;32894;-88
2022/12/11 08:25:35;;;;;;;;;;;;;;;4.25;67.73;98178.22;4384704;32;35550;-88
2022/12/11 08:28:06;;;;;;;0.00;0.00;;;;;;;3.66;70.70;98181.63;4385978;32;34950;-88
2022/12/11 08:30:42;;;;;;;1.15;1.05;;;;;;;3.88;69.73;98180.72;4383564;32;32016;-88
2022/12/11 08:33:21;;;;;;;0.55;0.55;;;;;;;3.71;70.23;98186.66;4382359;32;35463;-88
2022/12/11 08:35:51;;;;;;;0.00;0.00;;;;;;;3.87;68.98;98192.09;4380736;32;33326;-88
2022/12/11 08:38:26;;;;;;;0.00;0.00;;;;;;;3.71;69.71;98200.56;4393639;32;33408;-88
2022/12/11 08:41:27;;;;;;;0.57;0.57;;;;;;;4.17;67.55;98203.81;4386491;32;32633;-88
2022/12/11 08:44:11;;;;;;;0.55;0.50;;;;;;;3.50;70.57;98214.47;4374066;32;34361;-88
2022/12/11 08:46:44;;;;;;;0.65;0.65;;;;;;;3.97;67.48;98225.56;4372783;32;34454;-88
2022/12/11 08:49:17;;;;;;;0.00;0.00;;;;;;;3.99;67.15;98217.69;4350870;32;34227;-88
2022/12/11 08:51:59;;;;;;;0.20;0.20;;;;;;;4.10;67.27;98224.13;4372055;32;33771;-88
2022/12/11 08:54:38;;;;;;;0.00;0.00;;;;;;;4.15;67.71;98229.16;4384390;32;33123;-88
2022/12/11 08:57:10;;;;;;;0.28;0.28;;;;;;;4.17;67.01;98229.09;4392095;32;32995;-88
2022/12/11 08:59:43;;;;;;;1.23;1.08;;;;;;;4.07;67.85;98236.47;4375448;32;34480;-88
2022/12/11 09:02:13;;;;;;;0.17;0.17;;;;;;;4.40;66.23;98230.72;4384932;32;33087;-87
2022/12/11 09:04:45;;;;;;;;;;;;;;;4.16;67.07;98228.25;4380770;32;32415;-88
2022/12/11 09:07:20;;;;;;;0.00;0.00;;;;;;;3.88;68.07;98230.31;4398699;32;34581;-88
2022/12/11 09:09:54;;;;;;;0.20;0.20;;;;;;;4.05;67.51;98241.78;4390219;32;33112;-88
2022/12/11 09:12:28;;;;;;;0.20;0.20;;;;;;;4.26;66.71;98231.31;4392718;32;32272;-88
2022/12/11 09:14:56;;;;;;;0.10;0.10;;;;;;;4.07;67.55;98234.72;4360844;32;33975;-88
2022/12/11 09:17:29;;;;;;;0.00;0.00;;;;;;;3.67;69.71;98230.31;4389502;32;34136;-88
2022/12/11 09:20:03;;;;;;;0.28;0.28;;;;;;;4.30;65.92;98227.66;4385470;32;33197;-88
2022/12/11 09:22:33;;;;;;;0.00;0.00;;;;;;;4.35;65.67;98231.75;4388380;32;32806;-88
2022/12/11 09:25:04;;;;;;;0.22;0.22;;;;;;;3.69;68.30;98220.62;4386764;32;32968;-88
2022/12/11 09:27:34;;;;;;;0.00;0.00;;;;;;;3.63;69.01;98236.56;4398506;32;32798;-87
2022/12/11 09:30:06;;;;;;;0.85;0.45;;;;;;;4.05;66.82;98239.16;4396838;32;34709;-87
2022/12/11 09:35:19;;;;;;;0.00;0.00;;;;;;;3.79;67.73;98245.44;4376626;32;34681;-88
2022/12/11 09:37:54;;;;;;;0.30;0.30;;;;;;;4.17;66.64;98243.00;4388026;32;34354;-88
2022/12/11 09:40:31;;;;;;;0.70;0.70;;;;;;;4.00;67.85;98248.09;4379080;32;33164;-88
2022/12/11 09:46:08;;;;;;;2.37;2.12;;;;;;;4.11;67.18;98246.72;4395844;32;34062;-88
2022/12/11 09:48:44;;;;;;;0.70;0.70;;;;;;;3.95;68.26;98237.00;4383225;32;33895;-88
2022/12/11 09:51:21;;;;;;;0.98;0.68;;;;;;;3.95;67.51;98237.00;4387441;32;33570;-88
2022/12/11 09:54:00;;;;;;;3.50;3.15;;;;;;;4.11;67.54;98230.22;4376132;32;34127;-88
2022/12/11 09:56:38;;;;;;;2.40;1.70;;;;;;;4.45;66.08;98218.28;4394330;32;33486;-88
2022/12/11 09:59:15;;;;;;;3.03;2.80;;;;;;;4.12;66.50;98211.84;4387179;32;33442;-88
2022/12/11 10:02:29;;;;;;;0.77;0.77;;;;;;;3.39;70.13;98211.47;4368313;32;32467;-88
2022/12/11 10:05:03;;;;;;;0.70;0.70;;;;;;;3.91;67.65;98198.88;4387299;32;35983;-88
2022/12/11 10:07:41;;;;;;;3.70;0.73;;;;;;;3.99;66.93;98186.34;4386835;32;30641;-88
2022/12/11 10:10:18;;;;;;;0.17;0.17;;;;;;;3.86;68.75;98204.28;4362890;32;33325;-88
2022/12/11 10:13:01;;;;;;;0.10;0.10;;;;;;;3.58;68.98;98212.41;4383547;32;34158;-88
2022/12/11 10:16:00;;;;;;;0.37;0.37;;;;;;;3.90;66.90;98223.28;4383772;32;32568;-89
2022/12/11 10:18:35;;;;;;;0.00;0.00;;;;;;;3.91;66.92;98222.38;4373502;32;33100;-88
2022/12/11 10:21:05;;;;;;;0.00;0.00;;;;;;;3.88;66.75;98228.56;4363861;32;33636;-88
2022/12/11 10:23:45;;;;;;;0.00;0.00;;;;;;;3.84;67.70;98230.44;4385549;32;30985;-88
2022/12/11 10:26:17;;;;;;;0.47;0.47;;;;;;;3.91;67.10;98230.22;4369078;32;32998;-88
2022/12/11 10:28:50;;;;;;;0.17;0.17;;;;;;;3.81;67.63;98238.44;4382382;32;33986;-88
2022/12/11 10:31:48;;;;;;;0.37;0.37;;;;;;;3.43;68.75;98245.19;4386827;32;32878;-88
2022/12/11 10:34:36;;;;;;;0.37;0.37;;;;;;;3.87;67.57;98229.47;4376085;32;32990;-87
2022/12/11 10:37:09;;;;;;;4.05;0.80;;;;;;;4.22;65.98;98227.13;4386037;32;32098;-88
2022/12/11 10:39:41;;;;;;;0.55;0.55;;;;;;;3.87;67.94;98245.16;4379451;32;32727;-89
2022/12/11 10:42:16;;;;;;;0.20;0.20;;;;;;;4.40;65.73;98238.56;4394517;32;33363;-88
2022/12/11 10:44:56;;;;;;;0.03;0.03;;;;;;;4.03;67.03;98261.00;4389288;32;33094;-88
2022/12/11 10:47:24;;;;;;;0.13;0.13;;;;;;;4.17;66.23;98269.13;4391792;32;33407;-89
2022/12/11 10:50:01;;;;;;;0.00;0.00;;;;;;;4.19;65.65;98256.88;4401704;32;32319;-88
2022/12/11 10:52:38;;;;;;;0.00;0.00;;;;;;;4.05;66.58;98259.22;4386120;32;33818;-88
2022/12/11 10:55:28;;;;;;;1.08;0.73;;;;;;;4.18;65.79;98249.94;4387367;32;32562;-88
2022/12/11 10:58:03;;;;;;;9.02;1.95;;;;;;;4.13;66.51;98259.75;4392179;32;30082;-89
2022/12/11 11:00:39;;;;;;;0.80;0.52;;;;;;;4.00;66.74;98261.16;4376663;32;34012;-88
2022/12/11 11:03:54;;;;;;;0.17;0.17;;;;;;;4.11;66.14;98243.28;4378341;32;33674;-89
2022/12/11 11:06:25;;;;;;;1.50;0.50;;;;;;;4.28;65.17;98261.69;4326843;32;32302;-88
2022/12/11 11:11:48;;;;;;;0.43;0.32;;;;;;;4.66;63.87;98251.34;4384668;32;33588;-88
2022/12/11 11:14:24;;;;;;;0.43;0.43;;;;;;;4.63;63.67;98246.25;4371378;32;33305;-89
2022/12/11 11:17:03;;;;;;;0.28;0.28;;;;;;;3.92;66.51;98247.56;4373353;32;33355;-89
2022/12/11 11:19:35;;;;;;;0.00;0.00;;;;;;;4.19;64.51;98241.19;4343529;32;32932;-88
2022/12/11 11:22:07;;;;;;;0.28;0.13;;;;;;;3.84;66.64;98246.09;4378861;32;32425;-89
2022/12/11 11:24:41;;;;;;;0.55;0.35;;;;;;;4.03;65.91;98235.75;4379029;32;33595;-88
2022/12/11 11:27:18;;;;;;;0.00;0.00;;;;;;;3.89;66.96;98245.06;4386521;32;33163;-88
2022/12/11 11:30:05;;;;;;;0.00;0.00;;;;;;;4.39;64.49;98247.31;4374261;32;32888;-89
2022/12/11 11:32:38;;;;;;;1.95;1.08;;;;;;;4.24;65.65;98244.44;4379437;32;32983;-88
2022/12/11 11:35:11;;;;;;;0.47;0.47;;;;;;;4.10;66.09;98262.47;4376296;32;33920;-89
2022/12/11 11:38:17;;;;;;;1.35;0.95;;;;;;;3.73;67.48;98269.22;4376904;32;34608;-88
2022/12/11 11:41:06;;;;;;;0.05;0.05;;;;;;;4.30;64.15;98264.25;4376919;32;32340;-88
2022/12/11 11:43:54;;;;;;;0.00;0.00;;;;;;;4.08;65.96;98274.72;4383099;32;35518;-89
2022/12/11 11:46:39;;;;;;;0.80;0.75;;;;;;;4.32;64.41;98260.66;4384174;32;32911;-89
2022/12/11 11:49:44;;;;;;;0.00;0.00;;;;;;;3.87;66.24;98268.66;4373406;32;34448;-89
2022/12/11 11:52:28;;;;;;;0.10;0.10;;;;;;;3.85;65.55;98263.50;4376922;32;33606;-89
2022/12/11 11:55:14;;;;;;;0.00;0.00;;;;;;;4.45;63.61;98273.19;4378159;32;32084;-90
2022/12/11 11:57:59;;;;;;;0.13;0.13;;;;;;;3.93;65.91;98280.59;4390076;32;32628;-89
2022/12/11 12:00:38;;;;;;;0.00;0.00;;;;;;;4.01;65.70;98286.37;4385814;32;35502;-89
2022/12/11 12:03:12;;;;;;;0.00;0.00;;;;;;;4.44;63.71;98288.00;4383747;32;32555;-89
2022/12/11 12:05:57;;;;;;;0.73;0.73;;;;;;;4.07;64.99;98299.16;4385521;32;34050;-89
2022/12/11 12:08:41;;;;;;;0.35;0.35;;;;;;;3.94;65.42;98297.97;4372666;32;32366;-89
2022/12/11 12:11:37;;;;;;;0.20;0.20;;;;;;;4.15;64.17;98304.06;4386224;32;33773;-88
2022/12/11 12:14:18;;;;;;;0.22;0.22;;;;;;;4.17;64.35;98297.84;4396194;32;32150;-89
2022/12/11 12:17:48;;;;;;;0.00;0.00;;;;;;;4.59;62.43;98304.78;4386869;32;33019;-89
2022/12/11 12:20:38;;;;;;;0.00;0.00;;;;;;;4.56;62.55;98307.56;4386090;32;34335;-90
2022/12/11 12:23:27;;;;;;;0.00;0.00;;;;;;;4.37;63.12;98313.56;4397682;32;34276;-89
2022/12/11 12:26:17;;;;;;;0.30;0.30;;;;;;;4.21;64.23;98319.50;4396204;32;34116;-89
2022/12/11 12:29:07;;;;;;;0.13;0.13;;;;;;;4.39;63.13;98316.09;4386774;32;33611;-89
2022/12/11 12:32:04;;;;;;;0.85;0.85;;;;;;;4.25;64.00;98306.22;4367263;32;33823;-89
2022/12/11 12:34:41;;;;;;;0.20;0.20;;;;;;;4.85;61.58;98304.50;4362387;32;33040;-90
2022/12/11 12:37:26;;;;;;;0.13;0.13;;;;;;;4.84;61.27;98289.75;4385087;32;33209;-89